sensor_id;sensor_type;location;lat;lon;timestamp;P1;durP1;ratioP1;P2;durP2;ratioP2
20519;SDS011;53432;51.952;14.740;2022-08-24T00:00:21;7.07;;;4.38;;
20519;SDS011;53432;51.952;14.740;2022-08-24T00:02:50;9.00;;;4.50;;
20519;SDS011;53432;51.952;14.740;2022-08-24T00:05:19;5.10;;;3.88;;
20519;SDS011;53432;51.952;14.740;2022-08-24T00:07:47;8.43;;;4.53;;
20519;SDS011;53432;51.952;14.740;2022-08-24T00:10:15;9.23;;;3.92;;
20519;SDS011;53432;51.952;14.740;2022-08-24T00:12:44;7.53;;;3.83;;
20519;SDS011;53432;51.952;14.740;2022-08-24T00:15:12;7.53;;;4.72;;
20519;SDS011;53432;51.952;14.740;2022-08-24T00:17:40;9.50;;;4.57;;
20519;SDS011;53432;51.952;14.740;2022-08-24T00:20:09;9.30;;;5.45;;
20519;SDS011;53432;51.952;14.740;2022-08-24T00:22:39;10.35;;;5.20;;
20519;SDS011;53432;51.952;14.740;2022-08-24T00:25:07;9.50;;;4.13;;
20519;SDS011;53432;51.952;14.740;2022-08-24T00:27:36;12.55;;;4.38;;
20519;SDS011;53432;51.952;14.740;2022-08-24T00:30:04;9.55;;;4.22;;
20519;SDS011;53432;51.952;14.740;2022-08-24T00:32:34;7.75;;;4.75;;
20519;SDS011;53432;51.952;14.740;2022-08-24T00:35:02;7.40;;;4.95;;
20519;SDS011;53432;51.952;14.740;2022-08-24T00:37:30;7.78;;;3.97;;
20519;SDS011;53432;51.952;14.740;2022-08-24T00:39:58;9.38;;;3.90;;
20519;SDS011;53432;51.952;14.740;2022-08-24T00:42:26;6.40;;;3.90;;
20519;SDS011;53432;51.952;14.740;2022-08-24T00:44:53;8.52;;;4.35;;
20519;SDS011;53432;51.952;14.740;2022-08-24T00:47:22;9.48;;;4.38;;
20519;SDS011;53432;51.952;14.740;2022-08-24T00:49:53;5.35;;;3.50;;
20519;SDS011;53432;51.952;14.740;2022-08-24T00:52:25;8.95;;;4.10;;
20519;SDS011;53432;51.952;14.740;2022-08-24T00:54:57;5.00;;;3.63;;
20519;SDS011;53432;51.952;14.740;2022-08-24T00:57:30;11.90;;;4.85;;
20519;SDS011;53432;51.952;14.740;2022-08-24T01:00:09;7.28;;;4.03;;
20519;SDS011;53432;51.952;14.740;2022-08-24T01:02:41;5.05;;;4.30;;
20519;SDS011;53432;51.952;14.740;2022-08-24T01:05:11;10.82;;;4.90;;
20519;SDS011;53432;51.952;14.740;2022-08-24T01:07:40;6.47;;;4.07;;
20519;SDS011;53432;51.952;14.740;2022-08-24T01:10:09;7.43;;;3.92;;
20519;SDS011;53432;51.952;14.740;2022-08-24T01:12:40;6.63;;;4.05;;
20519;SDS011;53432;51.952;14.740;2022-08-24T01:15:10;5.63;;;3.92;;
20519;SDS011;53432;51.952;14.740;2022-08-24T01:17:38;5.70;;;4.00;;
20519;SDS011;53432;51.952;14.740;2022-08-24T01:20:23;9.77;;;3.35;;
20519;SDS011;53432;51.952;14.740;2022-08-24T01:22:53;7.05;;;3.65;;
20519;SDS011;53432;51.952;14.740;2022-08-24T01:25:30;6.97;;;3.85;;
20519;SDS011;53432;51.952;14.740;2022-08-24T01:27:59;5.40;;;4.28;;
20519;SDS011;53432;51.952;14.740;2022-08-24T01:30:30;6.68;;;3.90;;
20519;SDS011;53432;51.952;14.740;2022-08-24T01:32:58;6.30;;;3.70;;
20519;SDS011;53432;51.952;14.740;2022-08-24T01:35:27;13.57;;;4.30;;
20519;SDS011;53432;51.952;14.740;2022-08-24T01:37:56;10.30;;;3.60;;
20519;SDS011;53432;51.952;14.740;2022-08-24T01:40:27;6.70;;;3.75;;
20519;SDS011;53432;51.952;14.740;2022-08-24T01:43:00;7.10;;;3.88;;
20519;SDS011;53432;51.952;14.740;2022-08-24T01:45:28;8.25;;;3.92;;
20519;SDS011;53432;51.952;14.740;2022-08-24T01:47:56;5.88;;;3.63;;
20519;SDS011;53432;51.952;14.740;2022-08-24T01:50:24;6.60;;;4.05;;
20519;SDS011;53432;51.952;14.740;2022-08-24T01:52:51;5.28;;;3.60;;
20519;SDS011;53432;51.952;14.740;2022-08-24T01:55:19;8.98;;;4.38;;
20519;SDS011;53432;51.952;14.740;2022-08-24T01:57:48;8.07;;;4.10;;
20519;SDS011;53432;51.952;14.740;2022-08-24T02:00:15;8.02;;;4.50;;
20519;SDS011;53432;51.952;14.740;2022-08-24T02:02:43;5.20;;;3.65;;
20519;SDS011;53432;51.952;14.740;2022-08-24T02:05:11;5.72;;;3.55;;
20519;SDS011;53432;51.952;14.740;2022-08-24T02:07:41;9.80;;;4.05;;
20519;SDS011;53432;51.952;14.740;2022-08-24T02:10:09;8.50;;;4.03;;
20519;SDS011;53432;51.952;14.740;2022-08-24T02:12:39;6.47;;;3.92;;
20519;SDS011;53432;51.952;14.740;2022-08-24T02:15:09;6.78;;;3.70;;
20519;SDS011;53432;51.952;14.740;2022-08-24T02:17:37;9.27;;;4.05;;
20519;SDS011;53432;51.952;14.740;2022-08-24T02:20:05;9.80;;;3.78;;
20519;SDS011;53432;51.952;14.740;2022-08-24T02:22:34;5.53;;;3.70;;
20519;SDS011;53432;51.952;14.740;2022-08-24T02:25:01;7.80;;;3.45;;
20519;SDS011;53432;51.952;14.740;2022-08-24T02:27:29;5.03;;;4.30;;
20519;SDS011;53432;51.952;14.740;2022-08-24T02:29:56;4.95;;;4.35;;
20519;SDS011;53432;51.952;14.740;2022-08-24T02:32:34;6.35;;;4.05;;
20519;SDS011;53432;51.952;14.740;2022-08-24T02:35:01;5.45;;;3.90;;
20519;SDS011;53432;51.952;14.740;2022-08-24T02:37:29;8.73;;;4.18;;
20519;SDS011;53432;51.952;14.740;2022-08-24T02:39:56;5.90;;;3.97;;
20519;SDS011;53432;51.952;14.740;2022-08-24T02:42:24;6.60;;;3.95;;
20519;SDS011;53432;51.952;14.740;2022-08-24T02:44:51;6.60;;;3.90;;
20519;SDS011;53432;51.952;14.740;2022-08-24T02:47:19;9.07;;;3.97;;
20519;SDS011;53432;51.952;14.740;2022-08-24T02:49:48;6.45;;;4.05;;
20519;SDS011;53432;51.952;14.740;2022-08-24T02:52:15;7.43;;;3.88;;
20519;SDS011;53432;51.952;14.740;2022-08-24T02:54:43;7.70;;;4.32;;
20519;SDS011;53432;51.952;14.740;2022-08-24T02:57:10;8.52;;;4.55;;
20519;SDS011;53432;51.952;14.740;2022-08-24T02:59:37;6.20;;;4.05;;
20519;SDS011;53432;51.952;14.740;2022-08-24T03:02:05;8.73;;;3.97;;
20519;SDS011;53432;51.952;14.740;2022-08-24T03:04:32;10.20;;;4.00;;
20519;SDS011;53432;51.952;14.740;2022-08-24T03:07:01;5.57;;;4.10;;
20519;SDS011;53432;51.952;14.740;2022-08-24T03:09:28;5.22;;;4.18;;
20519;SDS011;53432;51.952;14.740;2022-08-24T03:11:56;6.38;;;4.40;;
20519;SDS011;53432;51.952;14.740;2022-08-24T03:14:23;10.70;;;4.07;;
20519;SDS011;53432;51.952;14.740;2022-08-24T03:16:50;7.88;;;4.28;;
20519;SDS011;53432;51.952;14.740;2022-08-24T03:19:18;6.97;;;4.78;;
20519;SDS011;53432;51.952;14.740;2022-08-24T03:21:46;8.00;;;5.35;;
20519;SDS011;53432;51.952;14.740;2022-08-24T03:24:15;9.23;;;4.68;;
20519;SDS011;53432;51.952;14.740;2022-08-24T03:26:42;8.00;;;3.75;;
20519;SDS011;53432;51.952;14.740;2022-08-24T03:29:09;8.60;;;4.93;;
20519;SDS011;53432;51.952;14.740;2022-08-24T03:31:37;8.18;;;4.40;;
20519;SDS011;53432;51.952;14.740;2022-08-24T03:34:05;5.95;;;4.97;;
20519;SDS011;53432;51.952;14.740;2022-08-24T03:36:32;7.63;;;4.80;;
20519;SDS011;53432;51.952;14.740;2022-08-24T03:38:59;7.03;;;4.32;;
20519;SDS011;53432;51.952;14.740;2022-08-24T03:41:28;7.32;;;4.63;;
20519;SDS011;53432;51.952;14.740;2022-08-24T03:43:55;7.05;;;4.68;;
20519;SDS011;53432;51.952;14.740;2022-08-24T03:46:24;6.55;;;4.32;;
20519;SDS011;53432;51.952;14.740;2022-08-24T03:48:53;7.90;;;4.22;;
20519;SDS011;53432;51.952;14.740;2022-08-24T03:51:22;6.65;;;4.15;;
20519;SDS011;53432;51.952;14.740;2022-08-24T03:53:52;9.48;;;6.15;;
20519;SDS011;53432;51.952;14.740;2022-08-24T03:56:20;11.10;;;5.50;;
20519;SDS011;53432;51.952;14.740;2022-08-24T03:58:49;9.27;;;5.70;;
20519;SDS011;53432;51.952;14.740;2022-08-24T04:01:16;12.38;;;6.65;;
20519;SDS011;53432;51.952;14.740;2022-08-24T04:03:45;11.20;;;5.90;;
20519;SDS011;53432;51.952;14.740;2022-08-24T04:06:14;10.65;;;6.47;;
20519;SDS011;53432;51.952;14.740;2022-08-24T04:08:43;16.65;;;7.50;;
20519;SDS011;53432;51.952;14.740;2022-08-24T04:11:11;10.35;;;7.13;;
20519;SDS011;53432;51.952;14.740;2022-08-24T04:13:40;9.75;;;6.47;;
20519;SDS011;53432;51.952;14.740;2022-08-24T04:16:09;12.77;;;7.65;;
20519;SDS011;53432;51.952;14.740;2022-08-24T04:18:38;8.88;;;7.05;;
20519;SDS011;53432;51.952;14.740;2022-08-24T04:21:13;10.02;;;7.10;;
20519;SDS011;53432;51.952;14.740;2022-08-24T04:23:41;17.35;;;8.10;;
20519;SDS011;53432;51.952;14.740;2022-08-24T04:26:09;9.43;;;7.57;;
20519;SDS011;53432;51.952;14.740;2022-08-24T04:28:36;9.05;;;7.18;;
20519;SDS011;53432;51.952;14.740;2022-08-24T04:31:04;11.73;;;7.85;;
20519;SDS011;53432;51.952;14.740;2022-08-24T04:33:33;13.80;;;8.75;;
20519;SDS011;53432;51.952;14.740;2022-08-24T04:36:00;12.20;;;8.82;;
20519;SDS011;53432;51.952;14.740;2022-08-24T04:38:31;12.05;;;8.82;;
20519;SDS011;53432;51.952;14.740;2022-08-24T04:40:59;12.23;;;8.35;;
20519;SDS011;53432;51.952;14.740;2022-08-24T04:43:29;13.65;;;8.18;;
20519;SDS011;53432;51.952;14.740;2022-08-24T04:45:57;19.88;;;9.05;;
20519;SDS011;53432;51.952;14.740;2022-08-24T04:48:25;11.57;;;8.40;;
20519;SDS011;53432;51.952;14.740;2022-08-24T04:50:53;10.80;;;7.88;;
20519;SDS011;53432;51.952;14.740;2022-08-24T04:53:21;10.85;;;7.88;;
20519;SDS011;53432;51.952;14.740;2022-08-24T04:55:48;10.23;;;8.25;;
20519;SDS011;53432;51.952;14.740;2022-08-24T04:58:16;11.35;;;8.25;;
20519;SDS011;53432;51.952;14.740;2022-08-24T05:00:44;9.60;;;7.28;;
20519;SDS011;53432;51.952;14.740;2022-08-24T05:03:11;12.93;;;7.88;;
20519;SDS011;53432;51.952;14.740;2022-08-24T05:05:39;12.45;;;8.07;;
20519;SDS011;53432;51.952;14.740;2022-08-24T05:08:09;10.55;;;7.35;;
20519;SDS011;53432;51.952;14.740;2022-08-24T05:10:37;14.73;;;8.90;;
20519;SDS011;53432;51.952;14.740;2022-08-24T05:13:06;14.65;;;8.68;;
20519;SDS011;53432;51.952;14.740;2022-08-24T05:15:35;12.23;;;9.57;;
20519;SDS011;53432;51.952;14.740;2022-08-24T05:18:06;11.85;;;8.55;;
20519;SDS011;53432;51.952;14.740;2022-08-24T05:20:33;11.02;;;7.95;;
20519;SDS011;53432;51.952;14.740;2022-08-24T05:23:01;13.98;;;8.90;;
20519;SDS011;53432;51.952;14.740;2022-08-24T05:25:30;15.10;;;8.57;;
20519;SDS011;53432;51.952;14.740;2022-08-24T05:27:57;11.60;;;8.30;;
20519;SDS011;53432;51.952;14.740;2022-08-24T05:30:25;12.57;;;7.47;;
20519;SDS011;53432;51.952;14.740;2022-08-24T05:32:53;12.30;;;7.65;;
20519;SDS011;53432;51.952;14.740;2022-08-24T05:35:21;12.48;;;7.78;;
20519;SDS011;53432;51.952;14.740;2022-08-24T05:37:48;11.10;;;7.80;;
20519;SDS011;53432;51.952;14.740;2022-08-24T05:40:16;9.57;;;7.07;;
20519;SDS011;53432;51.952;14.740;2022-08-24T05:42:46;11.80;;;7.53;;
20519;SDS011;53432;51.952;14.740;2022-08-24T05:45:14;14.80;;;8.02;;
20519;SDS011;53432;51.952;14.740;2022-08-24T05:47:41;14.32;;;7.93;;
20519;SDS011;53432;51.952;14.740;2022-08-24T05:50:09;12.07;;;8.38;;
20519;SDS011;53432;51.952;14.740;2022-08-24T05:52:37;15.32;;;9.32;;
20519;SDS011;53432;51.952;14.740;2022-08-24T05:55:04;12.95;;;7.85;;
20519;SDS011;53432;51.952;14.740;2022-08-24T05:57:33;12.25;;;8.13;;
20519;SDS011;53432;51.952;14.740;2022-08-24T06:00:05;14.55;;;9.73;;
20519;SDS011;53432;51.952;14.740;2022-08-24T06:02:34;13.90;;;8.55;;
20519;SDS011;53432;51.952;14.740;2022-08-24T06:05:02;12.20;;;8.85;;
20519;SDS011;53432;51.952;14.740;2022-08-24T06:07:29;15.50;;;9.00;;
20519;SDS011;53432;51.952;14.740;2022-08-24T06:09:57;11.55;;;8.07;;
20519;SDS011;53432;51.952;14.740;2022-08-24T06:12:24;14.23;;;8.82;;
20519;SDS011;53432;51.952;14.740;2022-08-24T06:14:52;18.80;;;9.60;;
20519;SDS011;53432;51.952;14.740;2022-08-24T06:17:21;12.52;;;8.65;;
20519;SDS011;53432;51.952;14.740;2022-08-24T06:19:48;14.73;;;8.90;;
20519;SDS011;53432;51.952;14.740;2022-08-24T06:22:15;16.33;;;9.30;;
20519;SDS011;53432;51.952;14.740;2022-08-24T06:24:43;15.02;;;9.88;;
20519;SDS011;53432;51.952;14.740;2022-08-24T06:27:28;19.65;;;9.98;;
20519;SDS011;53432;51.952;14.740;2022-08-24T06:29:56;12.95;;;9.40;;
20519;SDS011;53432;51.952;14.740;2022-08-24T06:32:27;15.63;;;9.50;;
20519;SDS011;53432;51.952;14.740;2022-08-24T06:34:55;13.75;;;8.65;;
20519;SDS011;53432;51.952;14.740;2022-08-24T06:37:23;13.15;;;8.90;;
20519;SDS011;53432;51.952;14.740;2022-08-24T06:39:52;14.00;;;9.63;;
20519;SDS011;53432;51.952;14.740;2022-08-24T06:42:19;14.38;;;10.18;;
20519;SDS011;53432;51.952;14.740;2022-08-24T06:44:49;15.30;;;9.93;;
20519;SDS011;53432;51.952;14.740;2022-08-24T06:47:17;16.55;;;10.43;;
20519;SDS011;53432;51.952;14.740;2022-08-24T06:49:46;16.58;;;9.15;;
20519;SDS011;53432;51.952;14.740;2022-08-24T06:52:13;16.80;;;9.23;;
20519;SDS011;53432;51.952;14.740;2022-08-24T06:54:40;17.83;;;10.43;;
20519;SDS011;53432;51.952;14.740;2022-08-24T06:57:08;16.77;;;10.45;;
20519;SDS011;53432;51.952;14.740;2022-08-24T06:59:35;18.85;;;10.70;;
20519;SDS011;53432;51.952;14.740;2022-08-24T07:02:03;16.48;;;10.10;;
20519;SDS011;53432;51.952;14.740;2022-08-24T07:04:30;15.85;;;9.52;;
20519;SDS011;53432;51.952;14.740;2022-08-24T07:06:59;17.63;;;9.20;;
20519;SDS011;53432;51.952;14.740;2022-08-24T07:09:26;18.35;;;10.27;;
20519;SDS011;53432;51.952;14.740;2022-08-24T07:11:57;15.38;;;10.27;;
20519;SDS011;53432;51.952;14.740;2022-08-24T07:14:26;16.52;;;10.63;;
20519;SDS011;53432;51.952;14.740;2022-08-24T07:16:54;15.63;;;9.68;;
20519;SDS011;53432;51.952;14.740;2022-08-24T07:19:22;16.98;;;9.77;;
20519;SDS011;53432;51.952;14.740;2022-08-24T07:21:51;16.45;;;9.65;;
20519;SDS011;53432;51.952;14.740;2022-08-24T07:24:23;18.33;;;10.32;;
20519;SDS011;53432;51.952;14.740;2022-08-24T07:26:50;16.27;;;10.10;;
20519;SDS011;53432;51.952;14.740;2022-08-24T07:29:18;20.95;;;10.70;;
20519;SDS011;53432;51.952;14.740;2022-08-24T07:31:45;15.63;;;10.40;;
20519;SDS011;53432;51.952;14.740;2022-08-24T07:34:13;20.38;;;11.43;;
20519;SDS011;53432;51.952;14.740;2022-08-24T07:36:41;17.85;;;10.82;;
20519;SDS011;53432;51.952;14.740;2022-08-24T07:39:08;19.85;;;11.43;;
20519;SDS011;53432;51.952;14.740;2022-08-24T07:41:38;22.05;;;10.70;;
20519;SDS011;53432;51.952;14.740;2022-08-24T07:44:07;30.75;;;11.95;;
20519;SDS011;53432;51.952;14.740;2022-08-24T07:46:35;26.25;;;12.95;;
20519;SDS011;53432;51.952;14.740;2022-08-24T07:49:04;21.27;;;11.88;;
20519;SDS011;53432;51.952;14.740;2022-08-24T07:51:32;24.98;;;12.35;;
20519;SDS011;53432;51.952;14.740;2022-08-24T07:54:00;21.63;;;11.13;;
20519;SDS011;53432;51.952;14.740;2022-08-24T07:56:29;21.73;;;9.73;;
20519;SDS011;53432;51.952;14.740;2022-08-24T07:58:58;19.33;;;11.88;;
20519;SDS011;53432;51.952;14.740;2022-08-24T08:01:26;22.35;;;12.57;;
20519;SDS011;53432;51.952;14.740;2022-08-24T08:03:54;20.83;;;11.88;;
20519;SDS011;53432;51.952;14.740;2022-08-24T08:06:21;21.23;;;12.85;;
20519;SDS011;53432;51.952;14.740;2022-08-24T08:08:49;21.67;;;11.43;;
20519;SDS011;53432;51.952;14.740;2022-08-24T08:11:16;23.08;;;12.10;;
20519;SDS011;53432;51.952;14.740;2022-08-24T08:13:44;21.10;;;12.32;;
20519;SDS011;53432;51.952;14.740;2022-08-24T08:16:13;21.52;;;11.73;;
20519;SDS011;53432;51.952;14.740;2022-08-24T08:18:41;20.10;;;12.60;;
20519;SDS011;53432;51.952;14.740;2022-08-24T08:21:08;23.58;;;11.88;;
20519;SDS011;53432;51.952;14.740;2022-08-24T08:23:56;20.52;;;12.30;;
20519;SDS011;53432;51.952;14.740;2022-08-24T08:26:41;18.50;;;11.05;;
20519;SDS011;53432;51.952;14.740;2022-08-24T08:29:09;19.33;;;10.35;;
20519;SDS011;53432;51.952;14.740;2022-08-24T08:31:39;24.50;;;10.32;;
20519;SDS011;53432;51.952;14.740;2022-08-24T08:34:07;21.83;;;11.77;;
20519;SDS011;53432;51.952;14.740;2022-08-24T08:36:35;17.73;;;10.57;;
20519;SDS011;53432;51.952;14.740;2022-08-24T08:39:05;19.20;;;11.38;;
20519;SDS011;53432;51.952;14.740;2022-08-24T08:44:34;19.55;;;11.48;;
20519;SDS011;53432;51.952;14.740;2022-08-24T08:47:20;22.30;;;11.52;;
20519;SDS011;53432;51.952;14.740;2022-08-24T08:50:04;17.25;;;11.65;;
20519;SDS011;53432;51.952;14.740;2022-08-24T08:52:39;25.77;;;12.27;;
20519;SDS011;53432;51.952;14.740;2022-08-24T08:55:35;20.58;;;12.32;;
20519;SDS011;53432;51.952;14.740;2022-08-24T08:58:08;21.08;;;12.48;;
20519;SDS011;53432;51.952;14.740;2022-08-24T09:00:47;21.02;;;12.15;;
20519;SDS011;53432;51.952;14.740;2022-08-24T09:06:34;19.63;;;10.80;;
20519;SDS011;53432;51.952;14.740;2022-08-24T09:12:23;13.93;;;10.25;;
20519;SDS011;53432;51.952;14.740;2022-08-24T09:15:13;19.00;;;12.75;;
20519;SDS011;53432;51.952;14.740;2022-08-24T09:17:56;23.00;;;13.48;;
20519;SDS011;53432;51.952;14.740;2022-08-24T09:20:40;19.25;;;11.07;;
20519;SDS011;53432;51.952;14.740;2022-08-24T09:23:19;17.77;;;12.75;;
20519;SDS011;53432;51.952;14.740;2022-08-24T09:25:57;22.15;;;12.55;;
20519;SDS011;53432;51.952;14.740;2022-08-24T09:28:38;15.23;;;10.57;;
20519;SDS011;53432;51.952;14.740;2022-08-24T09:31:13;17.30;;;10.38;;
20519;SDS011;53432;51.952;14.740;2022-08-24T09:36:51;11.75;;;9.48;;
20519;SDS011;53432;51.952;14.740;2022-08-24T09:39:30;11.32;;;8.57;;
20519;SDS011;53432;51.952;14.740;2022-08-24T09:48:20;10.00;;;7.57;;
20519;SDS011;53432;51.952;14.740;2022-08-24T09:54:23;10.50;;;6.80;;
20519;SDS011;53432;51.952;14.740;2022-08-24T09:57:18;9.13;;;7.38;;
20519;SDS011;53432;51.952;14.740;2022-08-24T10:00:04;10.43;;;7.03;;
20519;SDS011;53432;51.952;14.740;2022-08-24T10:02:57;11.50;;;7.47;;
20519;SDS011;53432;51.952;14.740;2022-08-24T10:05:44;10.63;;;7.28;;
20519;SDS011;53432;51.952;14.740;2022-08-24T10:08:32;12.05;;;8.15;;
20519;SDS011;53432;51.952;14.740;2022-08-24T10:11:12;14.20;;;8.48;;
20519;SDS011;53432;51.952;14.740;2022-08-24T10:13:48;8.40;;;6.65;;
20519;SDS011;53432;51.952;14.740;2022-08-24T10:16:35;12.90;;;7.15;;
20519;SDS011;53432;51.952;14.740;2022-08-24T10:19:12;9.93;;;7.15;;
20519;SDS011;53432;51.952;14.740;2022-08-24T10:21:57;12.45;;;6.78;;
20519;SDS011;53432;51.952;14.740;2022-08-24T10:24:35;10.85;;;7.32;;
20519;SDS011;53432;51.952;14.740;2022-08-24T10:27:25;11.25;;;6.65;;
20519;SDS011;53432;51.952;14.740;2022-08-24T10:33:05;8.23;;;6.35;;
20519;SDS011;53432;51.952;14.740;2022-08-24T10:35:43;9.52;;;7.13;;
20519;SDS011;53432;51.952;14.740;2022-08-24T10:38:29;7.82;;;5.78;;
20519;SDS011;53432;51.952;14.740;2022-08-24T10:41:39;9.23;;;6.50;;
20519;SDS011;53432;51.952;14.740;2022-08-24T10:47:19;8.95;;;6.38;;
20519;SDS011;53432;51.952;14.740;2022-08-24T10:49:54;9.82;;;6.72;;
20519;SDS011;53432;51.952;14.740;2022-08-24T10:56:02;12.95;;;6.82;;
20519;SDS011;53432;51.952;14.740;2022-08-24T10:58:36;15.60;;;7.57;;
20519;SDS011;53432;51.952;14.740;2022-08-24T11:01:19;11.57;;;6.63;;
20519;SDS011;53432;51.952;14.740;2022-08-24T11:03:52;8.52;;;6.20;;
20519;SDS011;53432;51.952;14.740;2022-08-24T11:06:24;8.15;;;6.82;;
20519;SDS011;53432;51.952;14.740;2022-08-24T11:08:56;10.20;;;6.85;;
20519;SDS011;53432;51.952;14.740;2022-08-24T11:11:28;9.10;;;6.82;;
20519;SDS011;53432;51.952;14.740;2022-08-24T11:13:58;10.27;;;7.50;;
20519;SDS011;53432;51.952;14.740;2022-08-24T11:16:33;15.07;;;6.70;;
20519;SDS011;53432;51.952;14.740;2022-08-24T11:19:04;17.27;;;7.03;;
20519;SDS011;53432;51.952;14.740;2022-08-24T11:21:36;9.88;;;6.68;;
20519;SDS011;53432;51.952;14.740;2022-08-24T11:24:08;16.33;;;7.55;;
20519;SDS011;53432;51.952;14.740;2022-08-24T11:26:49;9.50;;;7.03;;
20519;SDS011;53432;51.952;14.740;2022-08-24T11:29:19;14.93;;;7.22;;
20519;SDS011;53432;51.952;14.740;2022-08-24T11:31:49;16.85;;;7.20;;
20519;SDS011;53432;51.952;14.740;2022-08-24T11:34:18;10.93;;;7.03;;
20519;SDS011;53432;51.952;14.740;2022-08-24T11:36:57;10.45;;;6.70;;
20519;SDS011;53432;51.952;14.740;2022-08-24T11:39:25;14.48;;;7.50;;
20519;SDS011;53432;51.952;14.740;2022-08-24T11:42:02;12.02;;;7.45;;
20519;SDS011;53432;51.952;14.740;2022-08-24T11:44:38;10.13;;;6.55;;
20519;SDS011;53432;51.952;14.740;2022-08-24T11:47:15;11.30;;;7.28;;
20519;SDS011;53432;51.952;14.740;2022-08-24T11:49:57;10.98;;;6.75;;
20519;SDS011;53432;51.952;14.740;2022-08-24T11:52:31;13.43;;;6.97;;
20519;SDS011;53432;51.952;14.740;2022-08-24T11:55:09;12.43;;;7.38;;
20519;SDS011;53432;51.952;14.740;2022-08-24T11:57:40;13.38;;;7.80;;
20519;SDS011;53432;51.952;14.740;2022-08-24T12:00:13;12.27;;;6.35;;
20519;SDS011;53432;51.952;14.740;2022-08-24T12:02:46;11.65;;;6.55;;
20519;SDS011;53432;51.952;14.740;2022-08-24T12:05:26;10.43;;;7.00;;
20519;SDS011;53432;51.952;14.740;2022-08-24T12:08:00;10.05;;;6.85;;
20519;SDS011;53432;51.952;14.740;2022-08-24T12:10:37;13.50;;;7.20;;
20519;SDS011;53432;51.952;14.740;2022-08-24T12:13:12;11.95;;;7.28;;
20519;SDS011;53432;51.952;14.740;2022-08-24T12:15:53;15.57;;;7.63;;
20519;SDS011;53432;51.952;14.740;2022-08-24T12:18:29;15.50;;;7.28;;
20519;SDS011;53432;51.952;14.740;2022-08-24T12:21:03;13.43;;;7.28;;
20519;SDS011;53432;51.952;14.740;2022-08-24T12:23:35;11.27;;;7.68;;
20519;SDS011;53432;51.952;14.740;2022-08-24T12:26:05;14.10;;;7.82;;
20519;SDS011;53432;51.952;14.740;2022-08-24T12:28:39;11.52;;;6.43;;
20519;SDS011;53432;51.952;14.740;2022-08-24T12:31:11;15.77;;;7.35;;
20519;SDS011;53432;51.952;14.740;2022-08-24T12:33:46;9.02;;;6.65;;
20519;SDS011;53432;51.952;14.740;2022-08-24T12:36:20;10.73;;;6.35;;
20519;SDS011;53432;51.952;14.740;2022-08-24T12:38:58;17.15;;;8.25;;
20519;SDS011;53432;51.952;14.740;2022-08-24T12:41:30;10.93;;;6.43;;
20519;SDS011;53432;51.952;14.740;2022-08-24T12:44:01;11.27;;;6.63;;
20519;SDS011;53432;51.952;14.740;2022-08-24T12:46:32;11.25;;;6.35;;
20519;SDS011;53432;51.952;14.740;2022-08-24T12:49:04;10.05;;;5.72;;
20519;SDS011;53432;51.952;14.740;2022-08-24T12:51:39;7.38;;;5.53;;
20519;SDS011;53432;51.952;14.740;2022-08-24T12:54:22;11.15;;;6.07;;
20519;SDS011;53432;51.952;14.740;2022-08-24T12:57:20;11.82;;;5.78;;
20519;SDS011;53432;51.952;14.740;2022-08-24T12:59:57;15.02;;;6.68;;
20519;SDS011;53432;51.952;14.740;2022-08-24T13:02:32;12.52;;;6.97;;
20519;SDS011;53432;51.952;14.740;2022-08-24T13:05:08;9.88;;;5.43;;
20519;SDS011;53432;51.952;14.740;2022-08-24T13:07:39;7.50;;;6.47;;
20519;SDS011;53432;51.952;14.740;2022-08-24T13:10:13;12.85;;;6.63;;
20519;SDS011;53432;51.952;14.740;2022-08-24T13:15:51;12.57;;;6.03;;
20519;SDS011;53432;51.952;14.740;2022-08-24T13:21:49;9.80;;;5.78;;
20519;SDS011;53432;51.952;14.740;2022-08-24T13:33:33;9.75;;;6.43;;
20519;SDS011;53432;51.952;14.740;2022-08-24T13:36:06;8.63;;;5.88;;
20519;SDS011;53432;51.952;14.740;2022-08-24T13:41:53;11.23;;;5.18;;
20519;SDS011;53432;51.952;14.740;2022-08-24T13:44:44;10.02;;;5.68;;
20519;SDS011;53432;51.952;14.740;2022-08-24T13:47:46;9.18;;;6.15;;
20519;SDS011;53432;51.952;14.740;2022-08-24T13:50:31;7.45;;;5.22;;
20519;SDS011;53432;51.952;14.740;2022-08-24T13:53:11;9.45;;;5.05;;
20519;SDS011;53432;51.952;14.740;2022-08-24T13:56:16;11.77;;;5.88;;
20519;SDS011;53432;51.952;14.740;2022-08-24T13:58:58;10.95;;;6.00;;
20519;SDS011;53432;51.952;14.740;2022-08-24T14:01:33;7.82;;;5.60;;
20519;SDS011;53432;51.952;14.740;2022-08-24T14:04:09;8.93;;;5.55;;
20519;SDS011;53432;51.952;14.740;2022-08-24T14:06:49;6.68;;;5.25;;
20519;SDS011;53432;51.952;14.740;2022-08-24T14:09:26;17.17;;;5.75;;
20519;SDS011;53432;51.952;14.740;2022-08-24T14:12:10;10.40;;;5.50;;
20519;SDS011;53432;51.952;14.740;2022-08-24T14:14:48;13.05;;;5.35;;
20519;SDS011;53432;51.952;14.740;2022-08-24T14:17:27;7.78;;;5.05;;
20519;SDS011;53432;51.952;14.740;2022-08-24T14:20:29;10.68;;;5.07;;
20519;SDS011;53432;51.952;14.740;2022-08-24T14:23:22;8.95;;;5.22;;
20519;SDS011;53432;51.952;14.740;2022-08-24T14:29:32;8.00;;;5.28;;
20519;SDS011;53432;51.952;14.740;2022-08-24T14:35:24;11.50;;;5.20;;
20519;SDS011;53432;51.952;14.740;2022-08-24T14:41:01;16.25;;;5.75;;
20519;SDS011;53432;51.952;14.740;2022-08-24T14:43:52;7.80;;;5.13;;
20519;SDS011;53432;51.952;14.740;2022-08-24T14:46:49;7.88;;;4.80;;
20519;SDS011;53432;51.952;14.740;2022-08-24T14:49:26;11.60;;;5.30;;
20519;SDS011;53432;51.952;14.740;2022-08-24T14:52:07;10.75;;;5.60;;
20519;SDS011;53432;51.952;14.740;2022-08-24T14:54:47;11.82;;;5.28;;
20519;SDS011;53432;51.952;14.740;2022-08-24T15:03:40;8.60;;;5.32;;
20519;SDS011;53432;51.952;14.740;2022-08-24T15:06:21;11.45;;;5.90;;
20519;SDS011;53432;51.952;14.740;2022-08-24T15:08:52;8.15;;;5.63;;
20519;SDS011;53432;51.952;14.740;2022-08-24T15:11:31;10.73;;;5.90;;
20519;SDS011;53432;51.952;14.740;2022-08-24T15:14:03;10.48;;;5.30;;
20519;SDS011;53432;51.952;14.740;2022-08-24T15:16:34;13.27;;;6.40;;
20519;SDS011;53432;51.952;14.740;2022-08-24T15:19:13;12.23;;;6.25;;
20519;SDS011;53432;51.952;14.740;2022-08-24T15:21:46;10.95;;;5.85;;
20519;SDS011;53432;51.952;14.740;2022-08-24T15:24:21;10.75;;;5.80;;
20519;SDS011;53432;51.952;14.740;2022-08-24T15:27:00;10.93;;;5.90;;
20519;SDS011;53432;51.952;14.740;2022-08-24T15:29:35;13.30;;;6.15;;
20519;SDS011;53432;51.952;14.740;2022-08-24T15:32:14;9.95;;;6.45;;
20519;SDS011;53432;51.952;14.740;2022-08-24T15:34:45;14.50;;;6.32;;
20519;SDS011;53432;51.952;14.740;2022-08-24T15:37:15;12.63;;;6.28;;
20519;SDS011;53432;51.952;14.740;2022-08-24T15:39:52;12.45;;;6.13;;
20519;SDS011;53432;51.952;14.740;2022-08-24T15:42:19;10.52;;;6.25;;
20519;SDS011;53432;51.952;14.740;2022-08-24T15:44:47;12.68;;;6.38;;
20519;SDS011;53432;51.952;14.740;2022-08-24T15:47:20;8.82;;;6.05;;
20519;SDS011;53432;51.952;14.740;2022-08-24T15:49:54;9.13;;;5.38;;
20519;SDS011;53432;51.952;14.740;2022-08-24T15:52:41;9.05;;;5.22;;
20519;SDS011;53432;51.952;14.740;2022-08-24T15:55:25;8.88;;;5.18;;
20519;SDS011;53432;51.952;14.740;2022-08-24T15:57:58;8.80;;;5.40;;
20519;SDS011;53432;51.952;14.740;2022-08-24T16:00:48;9.45;;;4.82;;